Time;durP1;ratioP1;P1;durP2;ratioP2;P2;SDS_P1;SDS_P2;PMS_P1;PMS_P2;Temp;Humidity;BMP_temperature;BMP_pressure;BME280_temperature;BME280_humidity;BME280_pressure;Samples;Min_cycle;Max_cycle;Signal;HPM_P1;HPM_P2
2023/09/14 00:01:08;;;;;;;6.53;6.23;;;;;;;;;;4976652;28;20415;-65
2023/09/14 00:03:37;;;;;;;8.97;6.00;;;;;;;;;;4976744;28;20467;-65
2023/09/14 00:06:03;;;;;;;6.70;6.03;;;;;;;;;;4976524;28;20922;-65
2023/09/14 00:08:32;;;;;;;7.77;5.70;;;;;;;;;;4976611;28;20437;-65
2023/09/14 00:10:59;;;;;;;6.33;5.93;;;;;;;;;;4976513;28;20465;-65
2023/09/14 00:13:25;;;;;;;7.50;5.20;;;;;;;;;;4976146;28;20839;-65
2023/09/14 00:15:51;;;;;;;6.90;6.20;;;;;;;;;;4976556;28;20802;-65
2023/09/14 00:18:18;;;;;;;7.97;5.90;;;;;;;;;;4976525;28;20445;-65
2023/09/14 00:20:46;;;;;;;5.20;4.90;;;;;;;;;;4976301;28;20420;-65
2023/09/14 00:23:15;;;;;;;5.60;5.20;;;;;;;;;;4976267;28;20920;-65
2023/09/14 00:25:41;;;;;;;6.47;5.87;;;;;;;;;;4976174;28;20421;-65
2023/09/14 00:28:06;;;;;;;5.80;5.40;;;;;;;;;;4976182;28;20418;-65
2023/09/14 00:30:32;;;;;;;8.73;5.50;;;;;;;;;;4976147;28;20414;-65
2023/09/14 00:32:58;;;;;;;5.77;5.27;;;;;;;;;;4976455;28;20411;-65
2023/09/14 00:35:27;;;;;;;12.70;5.47;;;;;;;;;;4976271;28;20465;-65
2023/09/14 00:37:55;;;;;;;5.47;5.10;;;;;;;;;;4975975;28;20438;-65
2023/09/14 00:40:21;;;;;;;5.53;5.07;;;;;;;;;;4975955;28;20908;-65
2023/09/14 00:42:48;;;;;;;6.57;4.57;;;;;;;;;;4974491;28;20456;-65
2023/09/14 00:45:17;;;;;;;11.20;5.30;;;;;;;;;;4976152;28;20413;-65
2023/09/14 00:47:48;;;;;;;8.13;5.17;;;;;;;;;;4975034;28;20602;-65
2023/09/14 00:50:17;;;;;;;5.10;4.80;;;;;;;;;;4976279;28;20777;-65
2023/09/14 00:52:49;;;;;;;6.27;4.90;;;;;;;;;;4975718;28;20480;-65
2023/09/14 00:55:19;;;;;;;10.47;5.27;;;;;;;;;;4975959;28;20449;-65
2023/09/14 00:57:46;;;;;;;6.03;5.57;;;;;;;;;;4975689;28;20890;-65
2023/09/14 01:00:12;;;;;;;5.93;5.40;;;;;;;;;;4975720;28;20445;-65
2023/09/14 01:02:40;;;;;;;6.33;5.07;;;;;;;;;;4975127;28;20503;-65
2023/09/14 01:05:06;;;;;;;7.50;5.60;;;;;;;;;;4975696;28;20953;-65
2023/09/14 01:07:32;;;;;;;4.63;4.20;;;;;;;;;;4974952;28;20429;-65
2023/09/14 01:10:01;;;;;;;5.53;5.10;;;;;;;;;;4974913;28;20502;-65
2023/09/14 01:12:28;;;;;;;10.80;4.87;;;;;;;;;;4974997;28;20555;-65
2023/09/14 01:15:09;;;;;;;5.43;5.00;;;;;;;;;;4973889;28;20424;-65
2023/09/14 01:17:41;;;;;;;6.20;4.80;;;;;;;;;;4975467;28;20423;-65
2023/09/14 01:20:22;;;;;;;5.63;5.20;;;;;;;;;;4975410;28;20936;-65
2023/09/14 01:23:05;;;;;;;5.63;4.43;;;;;;;;;;4975176;28;20447;-65
2023/09/14 01:25:46;;;;;;;16.63;5.40;;;;;;;;;;4975236;28;20432;-65
2023/09/14 01:28:13;;;;;;;4.60;4.30;;;;;;;;;;4975211;28;20809;-65
2023/09/14 01:30:42;;;;;;;5.13;4.57;;;;;;;;;;4975093;28;20428;-65
2023/09/14 01:33:09;;;;;;;7.73;4.90;;;;;;;;;;4975384;28;20904;-65
2023/09/14 01:35:41;;;;;;;4.60;4.20;;;;;;;;;;4975124;28;20414;-65
2023/09/14 01:38:10;;;;;;;12.57;5.60;;;;;;;;;;4974927;28;20442;-65
2023/09/14 01:40:36;;;;;;;5.43;5.10;;;;;;;;;;4975111;28;20404;-65
2023/09/14 01:43:02;;;;;;;5.83;4.63;;;;;;;;;;4974672;28;20891;-65
2023/09/14 01:45:29;;;;;;;4.90;4.60;;;;;;;;;;4975151;28;20460;-65
2023/09/14 01:47:56;;;;;;;5.43;4.87;;;;;;;;;;4974738;28;20519;-65
2023/09/14 01:50:22;;;;;;;5.10;4.80;;;;;;;;;;4975038;28;20455;-65
2023/09/14 01:52:49;;;;;;;5.23;4.73;;;;;;;;;;4974653;28;20959;-65
2023/09/14 01:55:17;;;;;;;7.33;4.67;;;;;;;;;;4974781;28;20929;-65
2023/09/14 01:57:43;;;;;;;6.93;5.43;;;;;;;;;;4974676;28;20479;-65
2023/09/14 02:00:12;;;;;;;6.73;4.60;;;;;;;;;;4974298;28;20452;-65
2023/09/14 02:02:40;;;;;;;4.67;4.23;;;;;;;;;;4974672;28;20505;-65
2023/09/14 02:05:07;;;;;;;6.80;4.93;;;;;;;;;;4974464;28;20503;-65
2023/09/14 02:07:33;;;;;;;5.00;4.70;;;;;;;;;;4974560;28;20559;-65
2023/09/14 02:09:59;;;;;;;6.20;4.63;;;;;;;;;;4974459;28;20428;-65
2023/09/14 02:12:25;;;;;;;4.70;4.40;;;;;;;;;;4974248;28;20478;-65
2023/09/14 02:14:53;;;;;;;5.30;4.90;;;;;;;;;;4973572;28;20409;-65
2023/09/14 02:17:19;;;;;;;7.90;4.87;;;;;;;;;;4974308;28;20446;-65
2023/09/14 02:19:45;;;;;;;5.57;4.90;;;;;;;;;;4974376;28;20884;-65
2023/09/14 02:22:14;;;;;;;3.93;3.73;;;;;;;;;;4974280;28;20417;-65
2023/09/14 02:24:40;;;;;;;5.00;4.70;;;;;;;;;;4974206;28;20423;-65
2023/09/14 02:27:06;;;;;;;5.57;5.07;;;;;;;;;;4972778;28;20527;-65
2023/09/14 02:29:32;;;;;;;5.03;4.67;;;;;;;;;;4974168;28;20502;-65
2023/09/14 02:32:00;;;;;;;8.50;5.00;;;;;;;;;;4973893;28;20506;-65
2023/09/14 02:34:26;;;;;;;5.43;5.03;;;;;;;;;;4972711;28;20448;-65
2023/09/14 02:36:52;;;;;;;5.27;4.87;;;;;;;;;;4974639;28;20815;-65
2023/09/14 02:39:20;;;;;;;5.40;4.90;;;;;;;;;;4973846;28;20420;-65
2023/09/14 02:41:49;;;;;;;8.77;6.03;;;;;;;;;;4972711;28;20934;-65
2023/09/14 02:44:15;;;;;;;5.93;5.40;;;;;;;;;;4973796;28;20489;-65
2023/09/14 02:46:41;;;;;;;4.70;4.37;;;;;;;;;;4973736;28;20415;-65
2023/09/14 02:49:07;;;;;;;5.23;4.93;;;;;;;;;;4972399;28;20436;-65
2023/09/14 02:51:35;;;;;;;4.60;4.40;;;;;;;;;;4973442;28;20480;-65
2023/09/14 02:54:01;;;;;;;5.23;4.70;;;;;;;;;;4973777;28;20414;-65
2023/09/14 02:56:27;;;;;;;5.40;5.10;;;;;;;;;;4972341;28;20448;-65
2023/09/14 02:58:53;;;;;;;5.03;4.83;;;;;;;;;;4973732;28;20443;-65
2023/09/14 03:01:20;;;;;;;6.57;6.20;;;;;;;;;;4973438;28;20443;-65
2023/09/14 03:03:47;;;;;;;6.10;5.70;;;;;;;;;;4973629;28;20407;-65
2023/09/14 03:06:13;;;;;;;6.67;5.70;;;;;;;;;;4973564;28;20426;-65
2023/09/14 03:08:39;;;;;;;11.00;6.17;;;;;;;;;;4973333;28;20435;-65
2023/09/14 03:11:08;;;;;;;6.00;5.60;;;;;;;;;;4973444;28;20491;-65
2023/09/14 03:13:36;;;;;;;7.73;5.43;;;;;;;;;;4973404;28;20507;-65
2023/09/14 03:16:02;;;;;;;9.50;5.17;;;;;;;;;;4973396;28;20412;-65
2023/09/14 03:18:31;;;;;;;7.00;5.53;;;;;;;;;;4972975;28;20812;-65
2023/09/14 03:20:57;;;;;;;5.40;4.97;;;;;;;;;;4972076;28;20424;-65
2023/09/14 03:23:26;;;;;;;5.03;4.73;;;;;;;;;;4973375;28;20819;-65
2023/09/14 03:25:54;;;;;;;6.07;5.70;;;;;;;;;;4974652;28;20926;-65
2023/09/14 03:28:22;;;;;;;6.00;5.60;;;;;;;;;;4977383;28;20435;-65
2023/09/14 03:30:48;;;;;;;9.43;5.83;;;;;;;;;;4977429;28;20522;-65
2023/09/14 03:33:14;;;;;;;6.17;5.20;;;;;;;;;;4975963;28;20912;-65
2023/09/14 03:35:41;;;;;;;5.37;5.00;;;;;;;;;;4977153;28;20438;-65
2023/09/14 03:38:07;;;;;;;6.03;5.47;;;;;;;;;;4977384;28;20546;-65
2023/09/14 03:40:33;;;;;;;6.00;5.50;;;;;;;;;;4977200;28;20446;-65
2023/09/14 03:42:59;;;;;;;6.77;6.27;;;;;;;;;;4977205;28;20423;-65
2023/09/14 03:45:25;;;;;;;5.97;5.40;;;;;;;;;;4977101;28;20430;-65
2023/09/14 03:47:54;;;;;;;6.30;4.87;;;;;;;;;;4976928;28;20442;-65
2023/09/14 03:50:20;;;;;;;5.70;5.30;;;;;;;;;;4977004;28;20936;-65
2023/09/14 03:52:46;;;;;;;10.63;5.50;;;;;;;;;;4976919;28;20483;-65
2023/09/14 03:55:14;;;;;;;7.60;6.23;;;;;;;;;;4976911;28;20429;-65
2023/09/14 03:57:47;;;;;;;5.07;4.77;;;;;;;;;;4976718;28;20420;-65
2023/09/14 04:00:14;;;;;;;5.57;5.07;;;;;;;;;;4976712;28;20456;-65
2023/09/14 04:02:40;;;;;;;13.73;11.03;;;;;;;;;;4976586;28;20446;-65
2023/09/14 04:05:12;;;;;;;27.17;22.50;;;;;;;;;;4976265;28;20427;-65
2023/09/14 04:07:38;;;;;;;9.70;8.80;;;;;;;;;;4976748;28;20442;-65
2023/09/14 04:10:06;;;;;;;7.20;6.60;;;;;;;;;;4976670;28;20686;-65
2023/09/14 04:12:34;;;;;;;10.03;7.50;;;;;;;;;;4976715;28;20466;-65
2023/09/14 04:15:00;;;;;;;7.03;6.60;;;;;;;;;;4976669;28;20463;-65
2023/09/14 04:17:26;;;;;;;7.10;6.50;;;;;;;;;;4976707;28;20917;-65
2023/09/14 04:19:52;;;;;;;7.27;5.33;;;;;;;;;;4976654;28;20530;-65
2023/09/14 04:22:18;;;;;;;6.03;5.63;;;;;;;;;;4976622;28;20889;-65
2023/09/14 04:24:44;;;;;;;7.30;5.23;;;;;;;;;;4976526;28;20412;-65
2023/09/14 04:27:10;;;;;;;14.53;7.07;;;;;;;;;;4976573;28;20485;-65
2023/09/14 04:29:36;;;;;;;29.33;12.10;;;;;;;;;;4976375;28;20500;-65
2023/09/14 04:32:03;;;;;;;12.30;9.17;;;;;;;;;;4976443;28;20969;-65
2023/09/14 04:34:29;;;;;;;20.53;9.10;;;;;;;;;;4975200;28;20431;-65
2023/09/14 04:36:55;;;;;;;6.53;5.63;;;;;;;;;;4975776;28;20504;-65
2023/09/14 04:39:21;;;;;;;11.13;5.40;;;;;;;;;;4976099;28;20424;-65
2023/09/14 04:41:49;;;;;;;6.03;5.50;;;;;;;;;;4976250;28;20451;-65
2023/09/14 04:44:17;;;;;;;6.13;5.47;;;;;;;;;;4976267;28;20511;-65
2023/09/14 04:46:43;;;;;;;5.63;5.20;;;;;;;;;;4976164;28;20441;-65
2023/09/14 04:49:13;;;;;;;7.27;5.57;;;;;;;;;;4975962;28;20927;-65
2023/09/14 04:51:39;;;;;;;5.27;4.87;;;;;;;;;;4975999;28;20918;-65
2023/09/14 04:54:07;;;;;;;7.40;5.03;;;;;;;;;;4976064;28;20507;-65
2023/09/14 04:56:33;;;;;;;6.23;5.60;;;;;;;;;;4975973;28;20428;-65
2023/09/14 04:59:01;;;;;;;6.13;5.73;;;;;;;;;;4975940;28;20434;-65
2023/09/14 05:01:27;;;;;;;6.70;6.20;;;;;;;;;;4975974;28;20415;-65
2023/09/14 05:03:53;;;;;;;5.37;4.97;;;;;;;;;;4975816;28;20495;-65
2023/09/14 05:06:19;;;;;;;5.90;5.60;;;;;;;;;;4975896;28;20441;-65
2023/09/14 05:08:45;;;;;;;5.20;4.90;;;;;;;;;;4975778;28;20435;-65
2023/09/14 05:11:11;;;;;;;5.60;5.33;;;;;;;;;;4975732;28;20503;-65
2023/09/14 05:13:37;;;;;;;6.43;6.03;;;;;;;;;;4975980;28;20471;-65
2023/09/14 05:16:03;;;;;;;10.10;8.20;;;;;;;;;;4976112;28;20438;-65
2023/09/14 05:18:29;;;;;;;11.70;8.87;;;;;;;;;;4976149;28;20433;-65
2023/09/14 05:20:55;;;;;;;9.27;8.13;;;;;;;;;;4975882;28;20420;-65
2023/09/14 05:23:21;;;;;;;7.67;7.17;;;;;;;;;;4976010;28;20722;-65
2023/09/14 05:25:47;;;;;;;9.97;8.40;;;;;;;;;;4976080;28;20497;-65
2023/09/14 05:28:14;;;;;;;11.00;10.00;;;;;;;;;;4975861;28;20841;-65
2023/09/14 05:30:40;;;;;;;12.60;9.67;;;;;;;;;;4974246;28;20571;-65
2023/09/14 05:33:07;;;;;;;15.33;10.80;;;;;;;;;;4975611;28;20415;-65
2023/09/14 05:35:33;;;;;;;20.17;13.20;;;;;;;;;;4974956;28;20522;-65
2023/09/14 05:37:59;;;;;;;21.20;13.97;;;;;;;;;;4975474;28;20423;-65
2023/09/14 05:40:27;;;;;;;26.53;14.07;;;;;;;;;;4975422;28;20828;-65
2023/09/14 05:42:54;;;;;;;22.27;12.50;;;;;;;;;;4975142;28;20498;-65
2023/09/14 05:45:20;;;;;;;25.23;15.60;;;;;;;;;;4975086;28;20530;-66
2023/09/14 05:47:46;;;;;;;18.60;15.23;;;;;;;;;;4975127;28;21053;-65
2023/09/14 05:50:12;;;;;;;19.10;14.37;;;;;;;;;;4975156;28;20799;-65
2023/09/14 05:52:38;;;;;;;19.00;15.33;;;;;;;;;;4975190;28;20504;-65
2023/09/14 05:55:04;;;;;;;24.30;15.50;;;;;;;;;;4975068;28;20440;-65
2023/09/14 05:57:31;;;;;;;20.03;16.13;;;;;;;;;;4975161;28;20405;-65
2023/09/14 05:59:57;;;;;;;22.10;17.20;;;;;;;;;;4974800;28;20462;-65
2023/09/14 06:02:24;;;;;;;19.93;17.83;;;;;;;;;;4975210;28;20428;-65
2023/09/14 06:04:50;;;;;;;20.07;17.10;;;;;;;;;;4973555;28;20483;-65
2023/09/14 06:07:16;;;;;;;20.30;17.40;;;;;;;;;;4974910;28;20836;-65
2023/09/14 06:09:42;;;;;;;23.93;17.40;;;;;;;;;;4974940;28;20468;-65
2023/09/14 06:12:08;;;;;;;18.83;16.10;;;;;;;;;;4974747;28;20515;-65
2023/09/14 06:14:36;;;;;;;20.70;17.60;;;;;;;;;;4974744;28;20817;-65
2023/09/14 06:17:02;;;;;;;19.00;17.00;;;;;;;;;;4974921;28;20448;-65
2023/09/14 06:19:28;;;;;;;20.07;17.97;;;;;;;;;;4975093;28;20577;-65
2023/09/14 06:21:54;;;;;;;34.13;18.33;;;;;;;;;;4974656;28;20534;-65
2023/09/14 06:24:20;;;;;;;19.63;17.40;;;;;;;;;;4974538;28;20432;-65
2023/09/14 06:26:47;;;;;;;24.23;18.77;;;;;;;;;;4974352;28;21095;-65
2023/09/14 06:29:15;;;;;;;23.33;19.43;;;;;;;;;;4974452;28;20425;-65
2023/09/14 06:31:44;;;;;;;25.40;20.17;;;;;;;;;;4974444;28;20501;-65
2023/09/14 06:34:10;;;;;;;30.13;19.37;;;;;;;;;;4974390;28;20425;-65
2023/09/14 06:36:36;;;;;;;30.17;20.60;;;;;;;;;;4974284;28;20524;-65
2023/09/14 06:39:02;;;;;;;26.07;19.70;;;;;;;;;;4974529;28;20780;-65
2023/09/14 06:41:28;;;;;;;30.93;21.90;;;;;;;;;;4974448;28;20899;-65
2023/09/14 06:43:56;;;;;;;29.37;20.00;;;;;;;;;;4974468;28;20524;-65
2023/09/14 06:46:22;;;;;;;23.30;20.10;;;;;;;;;;4973680;28;20449;-65
2023/09/14 06:48:48;;;;;;;29.30;22.43;;;;;;;;;;4973999;28;20449;-64
2023/09/14 06:51:14;;;;;;;32.80;24.00;;;;;;;;;;4974041;28;20500;-64
2023/09/14 06:53:43;;;;;;;26.90;23.40;;;;;;;;;;4974186;28;20414;-64
2023/09/14 06:56:11;;;;;;;29.33;23.97;;;;;;;;;;4973939;28;20425;-64
2023/09/14 06:58:37;;;;;;;32.73;25.80;;;;;;;;;;4974050;28;20443;-65
2023/09/14 07:01:05;;;;;;;28.30;23.90;;;;;;;;;;4973569;28;20445;-64
2023/09/14 07:03:31;;;;;;;29.37;25.43;;;;;;;;;;4973819;28;20437;-64
2023/09/14 07:05:57;;;;;;;41.37;27.97;;;;;;;;;;4972524;28;20480;-64
2023/09/14 07:08:23;;;;;;;35.30;25.80;;;;;;;;;;4973935;28;20963;-64
2023/09/14 07:10:49;;;;;;;40.87;26.70;;;;;;;;;;4974020;28;20531;-64
2023/09/14 07:13:18;;;;;;;39.40;28.00;;;;;;;;;;4973796;28;20429;-64
2023/09/14 07:15:43;;;;;;;39.20;28.63;;;;;;;;;;4973897;28;20414;-64
2023/09/14 07:18:25;;;;;;;38.20;27.53;;;;;;;;;;4973753;28;20911;-64
2023/09/14 07:20:53;;;;;;;32.77;26.07;;;;;;;;;;4973726;28;20437;-64
2023/09/14 07:23:22;;;;;;;41.13;27.80;;;;;;;;;;4973617;28;20509;-64
2023/09/14 07:25:48;;;;;;;34.53;25.80;;;;;;;;;;4973700;28;20412;-64
2023/09/14 07:28:16;;;;;;;32.20;26.30;;;;;;;;;;4973734;28;20785;-64
2023/09/14 07:30:44;;;;;;;34.70;27.00;;;;;;;;;;4973447;28;20415;-64
2023/09/14 07:33:14;;;;;;;38.27;31.00;;;;;;;;;;4973492;28;20457;-63
2023/09/14 07:35:39;;;;;;;34.10;27.83;;;;;;;;;;4973467;28;20812;-63
2023/09/14 07:38:08;;;;;;;30.77;26.13;;;;;;;;;;4973787;28;20400;-63
2023/09/14 07:40:34;;;;;;;37.77;30.13;;;;;;;;;;4973545;28;20524;-63
2023/09/14 07:43:00;;;;;;;33.77;26.03;;;;;;;;;;4973515;28;20942;-63
2023/09/14 07:45:26;;;;;;;31.93;23.77;;;;;;;;;;4973440;28;20843;-63
2023/09/14 07:47:52;;;;;;;29.17;25.50;;;;;;;;;;4973519;28;20445;-63
2023/09/14 07:50:18;;;;;;;31.17;24.07;;;;;;;;;;4973646;28;20451;-63
2023/09/14 07:52:44;;;;;;;28.80;23.83;;;;;;;;;;4973473;28;20535;-63
2023/09/14 07:55:10;;;;;;;28.67;22.60;;;;;;;;;;4973506;28;20414;-63
2023/09/14 07:57:36;;;;;;;30.47;22.90;;;;;;;;;;4973714;28;20406;-63
2023/09/14 08:00:02;;;;;;;30.80;22.20;;;;;;;;;;4973250;28;20418;-63
2023/09/14 08:02:28;;;;;;;24.57;21.70;;;;;;;;;;4973295;28;20505;-63
2023/09/14 08:04:57;;;;;;;26.17;22.50;;;;;;;;;;4973503;28;20826;-64
2023/09/14 08:07:27;;;;;;;28.57;22.23;;;;;;;;;;4973238;28;20442;-64
2023/09/14 08:09:53;;;;;;;23.77;21.20;;;;;;;;;;4973418;28;20502;-63
2023/09/14 08:12:19;;;;;;;27.33;21.47;;;;;;;;;;4973668;28;20560;-63
2023/09/14 08:14:45;;;;;;;21.47;19.23;;;;;;;;;;4977164;28;20403;-64
2023/09/14 08:17:13;;;;;;;26.27;20.97;;;;;;;;;;4977198;28;20440;-64
2023/09/14 08:19:39;;;;;;;24.00;20.23;;;;;;;;;;4976825;28;20462;-63
2023/09/14 08:22:08;;;;;;;22.27;19.97;;;;;;;;;;4976848;28;20438;-63
2023/09/14 08:24:37;;;;;;;23.67;19.73;;;;;;;;;;4976759;28;20416;-63
2023/09/14 08:27:05;;;;;;;22.30;20.00;;;;;;;;;;4976750;28;20439;-65
2023/09/14 08:29:31;;;;;;;26.40;19.70;;;;;;;;;;4976586;28;20836;-64
2023/09/14 08:32:01;;;;;;;20.17;17.40;;;;;;;;;;4976505;28;20569;-64
2023/09/14 08:34:27;;;;;;;18.90;16.30;;;;;;;;;;4976593;28;20411;-64
2023/09/14 08:36:53;;;;;;;19.03;16.97;;;;;;;;;;4976623;28;20533;-64
2023/09/14 08:39:19;;;;;;;23.00;16.27;;;;;;;;;;4976592;28;20495;-64
2023/09/14 08:41:45;;;;;;;19.67;16.47;;;;;;;;;;4976516;28;20419;-64
2023/09/14 08:44:11;;;;;;;23.70;16.30;;;;;;;;;;4976425;28;20433;-65
2023/09/14 08:46:39;;;;;;;23.77;16.20;;;;;;;;;;4976331;28;20445;-65
2023/09/14 08:49:06;;;;;;;20.27;16.10;;;;;;;;;;4976193;28;20466;-64
2023/09/14 08:51:33;;;;;;;18.97;16.80;;;;;;;;;;4976143;28;20478;-64
2023/09/14 08:53:59;;;;;;;20.10;15.80;;;;;;;;;;4976281;28;20444;-64
2023/09/14 08:56:27;;;;;;;18.83;16.77;;;;;;;;;;4976152;28;20496;-64
2023/09/14 08:58:56;;;;;;;18.47;14.40;;;;;;;;;;4976315;28;20492;-64
2023/09/14 09:01:22;;;;;;;22.03;17.80;;;;;;;;;;4976134;28;20790;-64
2023/09/14 09:03:48;;;;;;;18.03;16.20;;;;;;;;;;4976353;28;20447;-64
2023/09/14 09:06:17;;;;;;;20.53;18.13;;;;;;;;;;4976146;28;20420;-64
2023/09/14 09:08:43;;;;;;;23.00;20.37;;;;;;;;;;4975981;28;20439;-65
2023/09/14 09:11:09;;;;;;;29.17;23.70;;;;;;;;;;4975933;28;20472;-65
2023/09/14 09:13:36;;;;;;;16.77;15.07;;;;;;;;;;4975890;28;20397;-65
2023/09/14 09:16:03;;;;;;;16.17;14.57;;;;;;;;;;4976026;28;20423;-65
2023/09/14 09:18:30;;;;;;;16.17;14.37;;;;;;;;;;4974533;28;20474;-65
2023/09/14 09:20:57;;;;;;;24.03;16.10;;;;;;;;;;4976041;28;20417;-65
2023/09/14 09:23:25;;;;;;;17.30;15.07;;;;;;;;;;4975443;28;20514;-64
2023/09/14 09:25:57;;;;;;;17.10;14.80;;;;;;;;;;4974484;28;20507;-64
2023/09/14 09:28:30;;;;;;;15.73;14.00;;;;;;;;;;4975798;28;20487;-64
2023/09/14 09:30:56;;;;;;;18.73;15.60;;;;;;;;;;4975666;28;20417;-64
2023/09/14 09:33:40;;;;;;;17.90;15.30;;;;;;;;;;4976270;28;20417;-64
2023/09/14 09:36:15;;;;;;;19.43;14.77;;;;;;;;;;4975659;28;20420;-64
2023/09/14 09:38:45;;;;;;;14.50;13.00;;;;;;;;;;4975455;28;20535;-64
2023/09/14 09:41:16;;;;;;;21.70;14.23;;;;;;;;;;4975432;28;20798;-64
2023/09/14 09:43:44;;;;;;;15.83;14.20;;;;;;;;;;4975322;28;20530;-64
2023/09/14 09:46:16;;;;;;;18.80;14.57;;;;;;;;;;4975289;28;20509;-64
2023/09/14 09:48:42;;;;;;;15.50;13.47;;;;;;;;;;4975269;28;20864;-64
2023/09/14 09:51:09;;;;;;;15.53;13.80;;;;;;;;;;4975167;28;20579;-64
2023/09/14 09:53:35;;;;;;;17.37;14.53;;;;;;;;;;4975123;28;20416;-64
2023/09/14 09:56:02;;;;;;;17.27;14.77;;;;;;;;;;4975260;28;20419;-64
2023/09/14 09:58:34;;;;;;;16.87;15.03;;;;;;;;;;4975144;28;20608;-64
2023/09/14 10:01:03;;;;;;;16.90;15.13;;;;;;;;;;4973996;28;20411;-64
2023/09/14 10:03:33;;;;;;;15.60;14.03;;;;;;;;;;4973653;28;20458;-64
2023/09/14 10:06:00;;;;;;;14.97;13.20;;;;;;;;;;4974965;28;20496;-64
2023/09/14 10:08:27;;;;;;;21.80;18.10;;;;;;;;;;4974857;28;20501;-64
2023/09/14 10:10:56;;;;;;;22.27;18.17;;;;;;;;;;4975069;28;20443;-64
2023/09/14 10:13:28;;;;;;;22.90;18.00;;;;;;;;;;4974816;28;20440;-64
2023/09/14 10:15:55;;;;;;;13.97;12.70;;;;;;;;;;4974697;28;20415;-64
2023/09/14 10:18:25;;;;;;;16.60;15.00;;;;;;;;;;4974623;28;20437;-64
2023/09/14 10:20:52;;;;;;;17.20;13.57;;;;;;;;;;4974576;28;20422;-64
2023/09/14 10:23:19;;;;;;;16.70;14.63;;;;;;;;;;4974524;28;20528;-64
2023/09/14 10:25:47;;;;;;;14.80;13.40;;;;;;;;;;4974869;28;20800;-64
2023/09/14 10:28:15;;;;;;;15.07;13.60;;;;;;;;;;4974499;28;20822;-64
2023/09/14 10:30:42;;;;;;;11.97;10.97;;;;;;;;;;4974695;28;20423;-64
2023/09/14 10:33:08;;;;;;;14.43;12.90;;;;;;;;;;4974407;28;20444;-64
2023/09/14 10:35:37;;;;;;;15.40;13.93;;;;;;;;;;4974056;28;20406;-64
2023/09/14 10:38:03;;;;;;;15.20;13.67;;;;;;;;;;4973092;28;20523;-64
2023/09/14 10:40:29;;;;;;;14.27;12.93;;;;;;;;;;4974360;28;20492;-64
2023/09/14 10:42:55;;;;;;;13.60;12.10;;;;;;;;;;4974277;28;20437;-64
2023/09/14 10:45:24;;;;;;;14.40;12.73;;;;;;;;;;4974292;28;20462;-64
2023/09/14 10:47:51;;;;;;;16.00;14.20;;;;;;;;;;4974110;28;20929;-64
2023/09/14 10:50:19;;;;;;;14.50;13.20;;;;;;;;;;4972974;28;20936;-64
2023/09/14 10:52:45;;;;;;;14.73;13.30;;;;;;;;;;4974252;28;20480;-64
2023/09/14 10:55:12;;;;;;;16.87;13.00;;;;;;;;;;4974084;28;20424;-65
2023/09/14 10:57:40;;;;;;;13.87;12.37;;;;;;;;;;4974125;28;20449;-65
2023/09/14 11:00:06;;;;;;;12.90;11.80;;;;;;;;;;4973915;28;20521;-64
2023/09/14 11:02:43;;;;;;;13.50;12.27;;;;;;;;;;4973912;28;20426;-64
2023/09/14 11:05:23;;;;;;;13.33;11.93;;;;;;;;;;4974037;28;20426;-64
2023/09/14 11:07:59;;;;;;;11.30;10.40;;;;;;;;;;4973854;28;20897;-64
2023/09/14 11:10:25;;;;;;;11.73;10.77;;;;;;;;;;4973954;28;20417;-64
2023/09/14 11:12:51;;;;;;;9.83;9.13;;;;;;;;;;4956553;28;20979;-64
2023/09/14 11:15:23;;;;;;;13.90;10.67;;;;;;;;;;4974266;28;20911;-64
2023/09/14 11:17:58;;;;;;;10.63;9.60;;;;;;;;;;4974283;28;20424;-64
2023/09/14 11:20:26;;;;;;;10.30;9.40;;;;;;;;;;4973864;28;20410;-64
2023/09/14 11:22:59;;;;;;;9.70;8.90;;;;;;;;;;4973596;28;20503;-64
2023/09/14 11:25:33;;;;;;;9.50;8.80;;;;;;;;;;4973876;28;20825;-64
2023/09/14 11:27:59;;;;;;;10.27;9.37;;;;;;;;;;4973611;28;20439;-64
2023/09/14 11:30:27;;;;;;;8.03;7.40;;;;;;;;;;4973735;28;20553;-64
2023/09/14 11:32:57;;;;;;;9.20;8.50;;;;;;;;;;4972232;28;21591;-65
2023/09/14 11:35:59;;;;;;;11.30;10.20;;;;;;;;;;4973756;28;20415;-65
2023/09/14 11:38:27;;;;;;;9.90;8.70;;;;;;;;;;4952146;29;20546;-65
2023/09/14 11:40:53;;;;;;;7.37;6.97;;;;;;;;;;4969704;28;20781;-65
2023/09/14 11:43:28;;;;;;;7.63;7.13;;;;;;;;;;4973422;28;20441;-65
2023/09/14 11:46:04;;;;;;;8.87;8.10;;;;;;;;;;4973845;28;20409;-65
2023/09/14 11:48:35;;;;;;;7.67;7.07;;;;;;;;;;4977178;28;20441;-65
2023/09/14 11:51:06;;;;;;;9.03;7.70;;;;;;;;;;4977267;28;20423;-65
2023/09/14 11:53:33;;;;;;;6.77;6.10;;;;;;;;;;4977311;28;20437;-65
2023/09/14 11:56:01;;;;;;;6.20;5.70;;;;;;;;;;4977259;28;20910;-65
2023/09/14 11:58:33;;;;;;;6.37;6.00;;;;;;;;;;4977519;28;20505;-65
2023/09/14 12:00:59;;;;;;;6.00;5.50;;;;;;;;;;4977450;28;20418;-65
2023/09/14 12:03:24;;;;;;;5.77;5.33;;;;;;;;;;4977225;28;20963;-65
2023/09/14 12:05:55;;;;;;;5.80;5.30;;;;;;;;;;4977303;28;20403;-65
2023/09/14 12:08:21;;;;;;;6.17;5.67;;;;;;;;;;4975916;28;20438;-65
2023/09/14 12:10:54;;;;;;;6.03;5.73;;;;;;;;;;4977084;28;20477;-65
2023/09/14 12:13:20;;;;;;;8.10;7.50;;;;;;;;;;4976895;28;20434;-65
2023/09/14 12:15:57;;;;;;;13.33;8.37;;;;;;;;;;4977041;28;20398;-65
2023/09/14 12:18:37;;;;;;;5.13;4.93;;;;;;;;;;4976989;28;20503;-65
2023/09/14 12:21:03;;;;;;;5.80;5.50;;;;;;;;;;4976850;28;20498;-65
2023/09/14 12:23:29;;;;;;;5.30;5.10;;;;;;;;;;4976732;28;20434;-65
2023/09/14 12:25:55;;;;;;;5.20;4.90;;;;;;;;;;4976876;28;20890;-65
2023/09/14 12:28:24;;;;;;;5.20;4.90;;;;;;;;;;4976617;28;20569;-65
2023/09/14 12:30:50;;;;;;;5.70;5.40;;;;;;;;;;4976955;28;20425;-65
2023/09/14 12:33:19;;;;;;;5.63;5.23;;;;;;;;;;4976557;28;20794;-65
2023/09/14 12:35:47;;;;;;;6.30;5.70;;;;;;;;;;4976716;28;20415;-65
2023/09/14 12:38:14;;;;;;;7.13;6.17;;;;;;;;;;4976491;28;20425;-65
2023/09/14 12:40:40;;;;;;;5.70;5.40;;;;;;;;;;4976695;28;20402;-65
2023/09/14 12:43:07;;;;;;;5.50;5.07;;;;;;;;;;4976655;28;20469;-65
2023/09/14 12:45:33;;;;;;;4.80;4.60;;;;;;;;;;4977071;28;20430;-65
2023/09/14 12:48:02;;;;;;;6.03;5.53;;;;;;;;;;4975744;28;21682;-65
2023/09/14 12:50:29;;;;;;;5.17;4.93;;;;;;;;;;4976357;28;20425;-65
2023/09/14 12:52:57;;;;;;;4.73;4.53;;;;;;;;;;4976224;28;20491;-65
2023/09/14 12:55:25;;;;;;;5.13;4.83;;;;;;;;;;4976307;28;20513;-65
2023/09/14 12:57:54;;;;;;;8.30;4.97;;;;;;;;;;4976134;28;20492;-65
2023/09/14 13:00:24;;;;;;;4.73;4.53;;;;;;;;;;4975762;28;20793;-65
2023/09/14 13:02:51;;;;;;;4.00;3.77;;;;;;;;;;4976069;28;20418;-65
2023/09/14 13:05:20;;;;;;;4.33;4.23;;;;;;;;;;4976118;28;20537;-65
2023/09/14 13:07:50;;;;;;;4.60;4.30;;;;;;;;;;4976035;28;20442;-65
2023/09/14 13:10:23;;;;;;;4.77;4.37;;;;;;;;;;4975993;28;20450;-65
2023/09/14 13:13:01;;;;;;;4.30;4.20;;;;;;;;;;4974769;28;20471;-65
2023/09/14 13:15:31;;;;;;;4.67;4.30;;;;;;;;;;4976156;28;20426;-65
2023/09/14 13:18:02;;;;;;;5.93;5.40;;;;;;;;;;4975988;28;20414;-65
2023/09/14 13:20:30;;;;;;;5.20;4.70;;;;;;;;;;4975944;28;20441;-65
2023/09/14 13:22:57;;;;;;;8.40;7.90;;;;;;;;;;4975953;28;20484;-65
2023/09/14 13:25:24;;;;;;;7.77;7.20;;;;;;;;;;4975644;28;20437;-65
2023/09/14 13:27:53;;;;;;;4.23;3.93;;;;;;;;;;4975958;28;20425;-65
2023/09/14 13:30:19;;;;;;;3.47;3.27;;;;;;;;;;4975502;28;20457;-65
2023/09/14 13:32:45;;;;;;;3.60;3.40;;;;;;;;;;4975548;28;20497;-65
2023/09/14 13:35:14;;;;;;;3.30;3.20;;;;;;;;;;4975676;28;20505;-65
2023/09/14 13:37:41;;;;;;;4.37;3.97;;;;;;;;;;4975650;28;20517;-65
2023/09/14 13:40:14;;;;;;;4.07;3.87;;;;;;;;;;4975527;28;20437;-65
2023/09/14 13:42:42;;;;;;;3.63;3.40;;;;;;;;;;4975569;28;20469;-65
2023/09/14 13:45:09;;;;;;;4.17;3.80;;;;;;;;;;4974354;28;20884;-65
2023/09/14 13:47:37;;;;;;;3.70;3.50;;;;;;;;;;4975271;28;21000;-65
2023/09/14 13:50:04;;;;;;;3.80;3.60;;;;;;;;;;4974059;28;20457;-65
2023/09/14 13:52:30;;;;;;;3.70;3.50;;;;;;;;;;4975208;28;20502;-65
2023/09/14 13:54:56;;;;;;;3.90;3.80;;;;;;;;;;4975031;28;20430;-65
2023/09/14 13:57:25;;;;;;;3.70;3.60;;;;;;;;;;4975078;28;20477;-65
2023/09/14 13:59:51;;;;;;;4.40;4.20;;;;;;;;;;4975021;28;20446;-65
2023/09/14 14:02:17;;;;;;;4.30;4.10;;;;;;;;;;4974879;28;20488;-65
2023/09/14 14:04:43;;;;;;;4.10;3.70;;;;;;;;;;4975016;28;20938;-65
2023/09/14 14:07:13;;;;;;;4.20;3.90;;;;;;;;;;4975057;28;20422;-65
2023/09/14 14:09:40;;;;;;;4.10;3.90;;;;;;;;;;4974417;28;20430;-65
2023/09/14 14:12:07;;;;;;;4.33;4.03;;;;;;;;;;4974415;28;20566;-65
2023/09/14 14:14:33;;;;;;;4.00;3.90;;;;;;;;;;4974746;28;20425;-65
2023/09/14 14:16:59;;;;;;;4.23;4.03;;;;;;;;;;4974772;28;20421;-65
2023/09/14 14:19:27;;;;;;;4.30;4.00;;;;;;;;;;4974690;28;20808;-65
2023/09/14 14:21:53;;;;;;;3.67;3.37;;;;;;;;;;4975094;28;20421;-65
2023/09/14 14:24:20;;;;;;;4.00;3.70;;;;;;;;;;4974584;28;20536;-65
2023/09/14 14:26:50;;;;;;;4.90;4.20;;;;;;;;;;4974572;28;20906;-65
2023/09/14 14:29:17;;;;;;;3.90;3.80;;;;;;;;;;4974615;28;20450;-65
2023/09/14 14:31:43;;;;;;;3.67;3.53;;;;;;;;;;4973330;28;20469;-65
2023/09/14 14:34:12;;;;;;;5.60;3.10;;;;;;;;;;4973157;28;20943;-64